Time;durP1;ratioP1;P1;durP2;ratioP2;P2;SDS_P1;SDS_P2;PMS_P1;PMS_P2;Temp;Humidity;BMP_temperature;BMP_pressure;BME280_temperature;BME280_humidity;BME280_pressure;Samples;Min_cycle;Max_cycle;Signal;HPM_P1;HPM_P2
2022/12/31 00:00:51;;;;;;;6.00;2.75;;;11.70;99.90;;;;;;5074619;28;20033;-72
2022/12/31 00:03:16;;;;;;;7.53;2.97;;;11.70;99.90;;;;;;5074317;28;20591;-72
2022/12/31 00:05:42;;;;;;;7.03;3.05;;;11.70;99.90;;;;;;5074252;28;20036;-72
2022/12/31 00:08:08;;;;;;;8.45;3.30;;;11.60;99.90;;;;;;5074135;28;20064;-72
2022/12/31 00:10:40;;;;;;;8.32;3.78;;;11.60;99.90;;;;;;5074170;28;20047;-72
2022/12/31 00:13:07;;;;;;;8.55;4.18;;;11.60;99.90;;;;;;5074141;28;20051;-72
2022/12/31 00:15:33;;;;;;;9.25;4.80;;;11.60;99.90;;;;;;5072818;28;20420;-72
2022/12/31 00:17:58;;;;;;;8.30;5.07;;;11.60;99.90;;;;;;5075388;28;20040;-72
2022/12/31 00:20:24;;;;;;;8.95;4.50;;;11.60;99.90;;;;;;5073934;28;20044;-72
2022/12/31 00:22:49;;;;;;;7.47;4.10;;;11.60;99.90;;;;;;5057275;28;20052;-73
2022/12/31 00:25:15;;;;;;;6.57;3.95;;;11.60;99.90;;;;;;5073914;28;20114;-72
2022/12/31 00:27:41;;;;;;;5.65;4.25;;;11.60;99.90;;;;;;5073809;28;20040;-72
2022/12/31 00:30:07;;;;;;;5.53;3.95;;;11.50;99.90;;;;;;5073805;28;20045;-72
2022/12/31 00:32:33;;;;;;;7.63;4.70;;;11.60;99.90;;;;;;5073734;28;20040;-72
2022/12/31 00:34:58;;;;;;;6.07;4.13;;;11.60;99.90;;;;;;5073711;28;20036;-72
2022/12/31 00:37:24;;;;;;;8.00;4.63;;;11.60;99.90;;;;;;5073710;28;20094;-72
2022/12/31 00:39:49;;;;;;;9.52;5.70;;;11.60;99.90;;;;;;5073860;28;20044;-72
2022/12/31 00:42:15;;;;;;;6.50;4.85;;;11.60;99.90;;;;;;5073557;28;20508;-72
2022/12/31 00:44:40;;;;;;;8.50;5.43;;;11.60;99.90;;;;;;5073790;28;20123;-72
2022/12/31 00:47:06;;;;;;;11.95;5.80;;;11.60;99.90;;;;;;5073394;28;20036;-72
2022/12/31 00:49:31;;;;;;;7.07;4.82;;;11.60;99.90;;;;;;5073360;28;20040;-68
2022/12/31 00:51:57;;;;;;;9.30;5.32;;;11.60;99.90;;;;;;5073355;28;20051;-68
2022/12/31 00:54:22;;;;;;;8.20;5.05;;;11.60;99.90;;;;;;5073344;28;20047;-68
2022/12/31 00:56:48;;;;;;;9.73;5.70;;;11.60;99.90;;;;;;5073380;28;20123;-68
2022/12/31 00:59:13;;;;;;;12.65;6.15;;;11.60;99.90;;;;;;5073216;28;20440;-68
2022/12/31 01:01:40;;;;;;;10.20;5.07;;;11.60;99.90;;;;;;5073446;28;20040;-68
2022/12/31 01:04:09;;;;;;;10.90;5.72;;;11.70;99.90;;;;;;5073080;28;20041;-68
2022/12/31 01:06:35;;;;;;;6.25;4.57;;;11.60;99.90;;;;;;5074474;28;20040;-68
2022/12/31 01:09:00;;;;;;;11.85;5.45;;;11.60;99.90;;;;;;5073038;28;20048;-68
2022/12/31 01:11:29;;;;;;;10.63;5.50;;;11.70;99.90;;;;;;5073209;28;20051;-68
2022/12/31 01:14:15;;;;;;;7.78;4.78;;;11.70;99.90;;;;;;5072902;28;20048;-68
2022/12/31 01:16:45;;;;;;;11.23;5.47;;;11.70;99.90;;;;;;5056398;28;20441;-68
2022/12/31 01:19:14;;;;;;;9.75;4.85;;;11.60;99.90;;;;;;5073832;28;20426;-68
2022/12/31 01:21:41;;;;;;;7.88;4.57;;;11.70;99.90;;;;;;5072768;28;20048;-68
2022/12/31 01:24:08;;;;;;;9.77;5.55;;;11.60;99.90;;;;;;5072726;28;20051;-68
2022/12/31 01:26:35;;;;;;;10.15;4.68;;;11.70;99.90;;;;;;5072242;28;20048;-68
2022/12/31 01:29:00;;;;;;;11.48;4.88;;;11.70;99.90;;;;;;5072916;28;20036;-68
2022/12/31 01:31:26;;;;;;;9.07;4.95;;;11.70;99.90;;;;;;5072609;28;20409;-68
2022/12/31 01:33:52;;;;;;;8.05;4.53;;;11.70;99.90;;;;;;5073972;28;20067;-68
2022/12/31 01:36:21;;;;;;;9.10;5.35;;;11.70;99.90;;;;;;5072672;28;20393;-68
2022/12/31 01:38:46;;;;;;;9.52;4.50;;;11.70;99.90;;;;;;5072388;28;20055;-68
2022/12/31 01:41:18;;;;;;;8.00;4.95;;;11.70;99.90;;;;;;5072418;28;20036;-68
2022/12/31 01:43:45;;;;;;;9.63;4.28;;;11.60;99.90;;;;;;5072440;28;20033;-68
2022/12/31 01:46:18;;;;;;;10.30;4.70;;;11.60;99.90;;;;;;5072521;28;20041;-68
2022/12/31 01:48:46;;;;;;;;;;;11.60;99.90;;;;;;5072626;28;20052;-68
2022/12/31 01:51:11;;;;;;;9.75;4.45;;;11.50;99.90;;;;;;5072554;28;19916;-68
2022/12/31 01:53:38;;;;;;;8.57;3.80;;;11.50;99.90;;;;;;5072218;28;20106;-68
2022/12/31 01:56:05;;;;;;;7.90;3.90;;;11.60;99.90;;;;;;5072134;28;20044;-68
2022/12/31 01:58:38;;;;;;;7.63;4.05;;;11.60;99.90;;;;;;5072061;28;20044;-68
2022/12/31 02:01:06;;;;;;;8.70;4.28;;;11.60;99.90;;;;;;5072185;28;20049;-68
2022/12/31 02:03:32;;;;;;;8.15;3.85;;;11.50;99.90;;;;;;5072336;28;20493;-68
2022/12/31 02:06:09;;;;;;;5.22;3.35;;;11.60;99.90;;;;;;5072043;28;20043;-68
2022/12/31 02:08:35;;;;;;;8.23;3.85;;;11.50;99.90;;;;;;5072058;28;20394;-68
2022/12/31 02:11:01;;;;;;;5.30;3.05;;;11.60;99.90;;;;;;5072254;28;20087;-68
2022/12/31 02:13:27;;;;;;;7.43;3.70;;;11.50;99.90;;;;;;5071986;28;20508;-68
2022/12/31 02:16:16;;;;;;;6.03;3.47;;;11.50;99.90;;;;;;5071819;28;20041;-69
2022/12/31 02:19:06;;;;;;;7.22;3.42;;;11.50;99.90;;;;;;5073123;28;20048;-68
2022/12/31 02:21:45;;;;;;;7.65;2.92;;;11.50;99.90;;;;;;5072720;28;20422;-68
2022/12/31 02:24:32;;;;;;;6.97;3.25;;;11.50;99.90;;;;;;5071873;28;20055;-68
2022/12/31 02:27:07;;;;;;;10.50;3.30;;;11.40;99.90;;;;;;5071853;28;20037;-68
2022/12/31 02:30:02;;;;;;;6.93;3.00;;;11.40;99.90;;;;;;5071865;28;20044;-68
2022/12/31 02:32:50;;;;;;;6.55;2.97;;;11.40;99.90;;;;;;5072036;28;20040;-68
2022/12/31 02:35:19;;;;;;;6.07;2.60;;;11.40;99.90;;;;;;5071813;28;20076;-68
2022/12/31 02:37:49;;;;;;;6.82;2.38;;;11.40;99.90;;;;;;5071768;28;20053;-68
2022/12/31 02:40:17;;;;;;;5.30;2.47;;;11.30;99.90;;;;;;5074950;28;20040;-68
2022/12/31 02:42:43;;;;;;;5.15;2.78;;;11.40;99.90;;;;;;5075865;28;20107;-68
2022/12/31 02:45:14;;;;;;;6.60;2.50;;;11.30;99.90;;;;;;5076072;28;20032;-68
2022/12/31 02:48:01;;;;;;;5.60;2.22;;;11.30;99.90;;;;;;5075596;28;20052;-68
2022/12/31 02:50:54;;;;;;;4.80;2.33;;;11.30;99.90;;;;;;5075772;28;20044;-68
2022/12/31 02:53:51;;;;;;;2.83;1.38;;;11.20;99.90;;;;;;5075739;28;20045;-68
2022/12/31 02:56:34;;;;;;;2.83;0.95;;;11.20;99.90;;;;;;5075617;28;20076;-68
2022/12/31 03:02:14;;;;;;;2.85;0.93;;;11.20;99.90;;;;;;5075537;28;20310;-66
2022/12/31 03:05:01;;;;;;;3.42;0.90;;;11.20;99.90;;;;;;5075511;28;20036;-66
2022/12/31 03:07:30;;;;;;;4.40;0.70;;;11.20;99.90;;;;;;5075351;28;20055;-66
2022/12/31 03:09:56;;;;;;;3.10;0.70;;;11.10;99.90;;;;;;5075642;28;20130;-66
2022/12/31 03:15:20;;;;;;;5.55;0.80;;;11.10;99.90;;;;;;5075247;28;20086;-66
2022/12/31 03:17:53;;;;;;;3.85;0.80;;;11.10;99.90;;;;;;5075065;28;20081;-66
2022/12/31 03:23:07;;;;;;;1.88;0.50;;;11.00;99.90;;;;;;5075100;28;20080;-66
2022/12/31 03:25:37;;;;;;;4.63;0.60;;;11.00;99.90;;;;;;5075019;28;20558;-66
2022/12/31 03:28:09;;;;;;;3.20;0.70;;;11.00;99.90;;;;;;5058316;28;20404;-66
2022/12/31 03:30:37;;;;;;;4.63;0.77;;;11.00;99.90;;;;;;5074890;28;20398;-66
2022/12/31 03:33:03;;;;;;;2.58;0.65;;;10.90;99.90;;;;;;5075144;28;20409;-66
2022/12/31 03:35:32;;;;;;;2.70;0.63;;;10.90;99.90;;;;;;5074858;28;20051;-66
2022/12/31 03:37:58;;;;;;;2.30;0.65;;;10.90;99.90;;;;;;5074795;28;20044;-66
2022/12/31 03:40:26;;;;;;;4.47;1.20;;;10.90;99.90;;;;;;5074761;28;20044;-66
2022/12/31 03:42:51;;;;;;;4.28;1.13;;;10.90;99.90;;;;;;5074724;28;20127;-66
2022/12/31 03:45:17;;;;;;;6.28;0.98;;;10.90;99.90;;;;;;5075955;28;20116;-66
2022/12/31 03:47:43;;;;;;;4.47;0.95;;;10.90;99.90;;;;;;5074697;28;20055;-66
2022/12/31 03:50:11;;;;;;;4.75;1.00;;;10.80;99.90;;;;;;5074610;28;20564;-66
2022/12/31 03:52:37;;;;;;;5.80;1.17;;;10.90;99.90;;;;;;5074532;28;20124;-66
2022/12/31 03:55:03;;;;;;;7.18;1.55;;;10.80;99.90;;;;;;5074743;28;20119;-66
2022/12/31 03:57:29;;;;;;;5.25;1.50;;;10.80;99.90;;;;;;5074523;28;20044;-66
2022/12/31 03:59:54;;;;;;;6.82;1.75;;;10.80;99.90;;;;;;5074410;28;20408;-66
2022/12/31 04:02:20;;;;;;;4.97;1.65;;;10.80;99.90;;;;;;5074402;28;20036;-66
2022/12/31 04:04:45;;;;;;;4.60;2.00;;;10.80;99.90;;;;;;5074294;28;20048;-66
2022/12/31 04:07:11;;;;;;;5.97;2.30;;;10.90;99.90;;;;;;5074221;28;20087;-66
2022/12/31 04:09:37;;;;;;;5.07;2.35;;;10.90;99.90;;;;;;5076035;28;20044;-66
2022/12/31 04:12:02;;;;;;;7.68;2.65;;;10.90;99.90;;;;;;5075432;28;20036;-66
2022/12/31 04:14:28;;;;;;;5.97;2.72;;;10.90;99.90;;;;;;5074199;28;20504;-66
2022/12/31 04:16:54;;;;;;;8.00;3.15;;;10.90;99.90;;;;;;5073960;28;20040;-66
2022/12/31 04:19:19;;;;;;;7.25;3.20;;;10.90;99.90;;;;;;5074056;28;20036;-66
2022/12/31 04:21:45;;;;;;;7.07;3.13;;;10.90;99.90;;;;;;5073989;28;20051;-66
2022/12/31 04:24:11;;;;;;;9.23;3.42;;;10.90;99.90;;;;;;5075217;28;20032;-67
2022/12/31 04:26:37;;;;;;;7.18;3.20;;;11.00;99.90;;;;;;5073860;28;20111;-66
2022/12/31 04:29:03;;;;;;;7.40;2.95;;;11.00;99.90;;;;;;5073902;28;20047;-66
2022/12/31 04:31:28;;;;;;;5.30;3.05;;;10.90;99.90;;;;;;5057399;28;20072;-66
2022/12/31 04:33:54;;;;;;;6.65;2.72;;;11.00;99.90;;;;;;5073742;28;20084;-66
2022/12/31 04:36:20;;;;;;;5.55;2.58;;;11.00;99.90;;;;;;5073667;28;20055;-66
2022/12/31 04:38:45;;;;;;;7.60;3.17;;;11.00;99.90;;;;;;5073558;28;20119;-66
2022/12/31 04:41:17;;;;;;;7.18;2.58;;;11.00;99.90;;;;;;5073628;28;20033;-66
2022/12/31 04:43:47;;;;;;;7.28;2.70;;;11.00;99.90;;;;;;5073617;28;20040;-66
2022/12/31 04:46:13;;;;;;;7.65;2.78;;;11.00;99.90;;;;;;5073872;28;20036;-66
2022/12/31 04:48:39;;;;;;;6.55;2.22;;;11.00;99.90;;;;;;5073361;28;20072;-66
2022/12/31 04:51:04;;;;;;;6.18;2.35;;;11.00;99.90;;;;;;5073421;28;20095;-66
2022/12/31 04:53:31;;;;;;;5.53;2.53;;;11.00;99.90;;;;;;5073348;28;20052;-66
2022/12/31 04:55:56;;;;;;;5.70;1.90;;;11.10;99.90;;;;;;5073523;28;20094;-66
2022/12/31 04:58:22;;;;;;;10.35;2.35;;;11.00;99.90;;;;;;5074708;28;20401;-66
2022/12/31 05:00:49;;;;;;;4.60;2.00;;;11.00;99.90;;;;;;5073464;28;20037;-66
2022/12/31 05:03:19;;;;;;;6.70;2.08;;;11.00;99.90;;;;;;5072475;28;20040;-66
2022/12/31 05:05:44;;;;;;;6.05;2.25;;;11.00;99.90;;;;;;5073151;28;20052;-66
2022/12/31 05:08:11;;;;;;;5.78;1.92;;;11.00;99.90;;;;;;5072999;28;20093;-66
2022/12/31 05:10:40;;;;;;;5.90;1.85;;;11.00;99.90;;;;;;5073066;28;20048;-66
2022/12/31 05:13:06;;;;;;;6.32;2.00;;;11.00;99.90;;;;;;5073004;28;20485;-66
2022/12/31 05:15:32;;;;;;;4.90;2.10;;;10.90;99.90;;;;;;5072962;28;20081;-66
2022/12/31 05:17:57;;;;;;;9.13;2.30;;;11.00;99.90;;;;;;5072743;28;20036;-66
2022/12/31 05:20:23;;;;;;;8.32;2.70;;;11.00;99.90;;;;;;5072836;28;20036;-66
2022/12/31 05:22:49;;;;;;;7.20;2.58;;;11.00;99.90;;;;;;5072782;28;20119;-66
2022/12/31 05:25:14;;;;;;;8.05;2.85;;;10.90;99.90;;;;;;5072981;28;20044;-66
2022/12/31 05:27:40;;;;;;;8.45;3.08;;;10.90;99.90;;;;;;5072621;28;20051;-66
2022/12/31 05:30:06;;;;;;;7.13;2.70;;;11.00;99.90;;;;;;5072912;28;20044;-66
2022/12/31 05:32:32;;;;;;;7.82;2.85;;;10.90;99.90;;;;;;5032202;28;20053;-66
2022/12/31 05:34:58;;;;;;;6.70;3.13;;;11.00;99.90;;;;;;5031961;28;20488;-66
2022/12/31 05:37:25;;;;;;;8.98;2.75;;;11.00;99.90;;;;;;5015258;28;20053;-66
2022/12/31 05:39:51;;;;;;;7.30;2.80;;;10.90;99.90;;;;;;5015505;28;20085;-66
2022/12/31 05:42:17;;;;;;;8.40;2.72;;;11.00;99.90;;;;;;5031969;28;20498;-66
2022/12/31 05:44:42;;;;;;;5.65;2.95;;;11.00;99.90;;;;;;5031817;28;20483;-66
2022/12/31 05:47:08;;;;;;;6.50;3.08;;;11.00;99.90;;;;;;5031523;28;20033;-66
2022/12/31 05:49:34;;;;;;;7.13;2.72;;;10.90;99.90;;;;;;5031433;28;20125;-66
2022/12/31 05:51:59;;;;;;;6.50;2.63;;;11.00;99.90;;;;;;5031766;28;20556;-66
2022/12/31 05:54:25;;;;;;;6.00;2.38;;;11.00;99.90;;;;;;5031736;28;20444;-66
2022/12/31 05:56:50;;;;;;;7.22;2.80;;;10.90;99.90;;;;;;5031459;28;20060;-66
2022/12/31 05:59:16;;;;;;;3.75;2.47;;;11.00;99.90;;;;;;5031359;28;20064;-66
2022/12/31 06:01:42;;;;;;;4.93;2.42;;;11.00;99.90;;;;;;5031344;28;20037;-66
2022/12/31 06:04:07;;;;;;;5.93;2.67;;;11.00;99.90;;;;;;5031584;28;20128;-66
2022/12/31 06:06:33;;;;;;;3.67;2.55;;;11.00;99.90;;;;;;5031238;28;20513;-66
2022/12/31 06:08:58;;;;;;;6.25;2.65;;;11.00;99.90;;;;;;5036061;28;20038;-66
2022/12/31 06:11:24;;;;;;;4.88;2.00;;;11.00;99.90;;;;;;5072043;28;20320;-66
2022/12/31 06:13:50;;;;;;;3.80;1.95;;;11.00;99.90;;;;;;5071966;28;20041;-66
2022/12/31 06:16:15;;;;;;;4.05;2.30;;;11.00;99.90;;;;;;5071856;28;20040;-66
2022/12/31 06:18:41;;;;;;;7.22;2.45;;;11.00;99.90;;;;;;5071871;28;20083;-66
2022/12/31 06:21:07;;;;;;;2.65;1.45;;;11.00;99.90;;;;;;5072205;28;20037;-66
2022/12/31 06:23:32;;;;;;;4.25;1.55;;;10.90;99.90;;;;;;5071912;28;20378;-66
2022/12/31 06:26:03;;;;;;;4.72;1.95;;;11.00;99.90;;;;;;5071840;28;20063;-66
2022/12/31 06:28:28;;;;;;;3.08;1.88;;;11.00;99.90;;;;;;5071859;28;20040;-66
2022/12/31 06:31:02;;;;;;;4.30;1.98;;;11.00;99.90;;;;;;5072083;28;20089;-66
2022/12/31 06:33:28;;;;;;;4.03;2.00;;;10.90;99.90;;;;;;5071812;28;20052;-66
2022/12/31 06:36:00;;;;;;;6.07;2.47;;;10.90;99.90;;;;;;5071971;28;20040;-67
2022/12/31 06:38:27;;;;;;;4.75;2.13;;;10.90;99.90;;;;;;5071751;28;20052;-66
2022/12/31 06:40:53;;;;;;;5.60;2.20;;;10.90;99.90;;;;;;5071938;28;20516;-66
2022/12/31 06:43:19;;;;;;;5.40;2.55;;;10.90;99.90;;;;;;5073508;28;20032;-66
2022/12/31 06:45:45;;;;;;;4.22;2.55;;;10.90;99.90;;;;;;5071672;28;20543;-66
2022/12/31 06:48:10;;;;;;;4.78;2.17;;;10.80;99.90;;;;;;5071459;28;20077;-66
2022/12/31 06:50:36;;;;;;;4.75;2.17;;;10.80;99.90;;;;;;5071652;28;20048;-66
2022/12/31 06:53:02;;;;;;;4.60;1.95;;;10.80;99.90;;;;;;5071606;28;20075;-66
2022/12/31 06:55:28;;;;;;;4.70;1.75;;;10.80;99.90;;;;;;5071618;28;20048;-66
2022/12/31 06:57:54;;;;;;;3.47;2.03;;;10.80;99.90;;;;;;5071418;28;20514;-66
2022/12/31 07:00:20;;;;;;;4.13;2.75;;;10.80;99.90;;;;;;5071543;28;20071;-66
2022/12/31 07:03:03;;;;;;;4.18;2.10;;;10.80;99.90;;;;;;5071777;28;20102;-66
2022/12/31 07:05:41;;;;;;;3.42;2.03;;;10.70;99.90;;;;;;5071871;28;20047;-66
2022/12/31 07:08:47;;;;;;;4.00;2.15;;;10.70;99.90;;;;;;5071633;28;20559;-66
2022/12/31 07:11:25;;;;;;;4.90;2.47;;;10.70;99.90;;;;;;5071737;28;20053;-66
2022/12/31 07:14:10;;;;;;;4.90;2.55;;;10.70;99.90;;;;;;5071494;28;20048;-66
2022/12/31 07:16:53;;;;;;;5.20;2.45;;;10.70;99.90;;;;;;5071329;28;20045;-66
2022/12/31 07:19:38;;;;;;;4.10;2.70;;;10.70;99.90;;;;;;5071351;28;20143;-66
2022/12/31 07:22:08;;;;;;;3.58;2.20;;;10.70;99.90;;;;;;5071566;28;20044;-66
2022/12/31 07:24:34;;;;;;;3.95;2.10;;;10.70;99.90;;;;;;5071396;28;20072;-66
2022/12/31 07:27:30;;;;;;;3.38;2.30;;;10.70;99.90;;;;;;5074951;28;20114;-66
2022/12/31 07:30:10;;;;;;;3.03;2.00;;;10.70;99.90;;;;;;5075259;28;20063;-66
2022/12/31 07:32:54;;;;;;;4.95;2.40;;;10.70;99.90;;;;;;5074960;28;20048;-66
2022/12/31 07:35:46;;;;;;;3.70;2.10;;;10.70;99.90;;;;;;5074853;28;20036;-66
2022/12/31 07:38:36;;;;;;;3.70;2.70;;;10.70;99.90;;;;;;5075964;28;20049;-66
2022/12/31 07:41:06;;;;;;;6.03;2.60;;;10.70;99.90;;;;;;5076092;28;20541;-66
2022/12/31 07:44:00;;;;;;;4.22;2.08;;;10.70;99.90;;;;;;5074784;28;20040;-66
2022/12/31 07:46:28;;;;;;;3.78;2.60;;;10.70;99.90;;;;;;5074875;28;20098;-66
2022/12/31 07:48:54;;;;;;;3.20;2.10;;;10.70;99.90;;;;;;5074510;28;20041;-66
2022/12/31 07:51:20;;;;;;;2.33;1.77;;;10.70;99.90;;;;;;5074789;28;20055;-66
2022/12/31 07:53:46;;;;;;;2.80;1.88;;;10.80;99.90;;;;;;5074555;28;20413;-66
2022/12/31 07:56:12;;;;;;;1.98;1.30;;;10.80;99.90;;;;;;5074456;28;20079;-66
2022/12/31 07:58:56;;;;;;;2.60;1.27;;;10.80;99.90;;;;;;5074415;28;20094;-66
2022/12/31 08:01:32;;;;;;;1.65;1.30;;;10.90;99.90;;;;;;5074395;28;20041;-66
2022/12/31 08:04:07;;;;;;;1.85;1.50;;;10.90;99.90;;;;;;5074415;28;20047;-66
2022/12/31 08:06:40;;;;;;;2.15;1.90;;;11.00;99.90;;;;;;5074314;28;20097;-66
2022/12/31 08:09:37;;;;;;;2.95;1.70;;;11.00;99.90;;;;;;5075836;28;20485;-66
2022/12/31 08:12:03;;;;;;;2.72;1.92;;;11.00;99.90;;;;;;5074255;28;20044;-66
2022/12/31 08:14:29;;;;;;;2.80;2.03;;;11.10;99.90;;;;;;5074151;28;20043;-66
2022/12/31 08:16:56;;;;;;;3.10;2.25;;;11.10;99.90;;;;;;5074344;28;20067;-65
2022/12/31 08:19:25;;;;;;;6.22;4.10;;;11.10;99.90;;;;;;5073977;28;20405;-66
2022/12/31 08:22:17;;;;;;;7.15;4.78;;;11.10;99.90;;;;;;5074449;28;20037;-66
2022/12/31 08:25:05;;;;;;;4.30;3.20;;;11.10;99.90;;;;;;5055359;28;20052;-66
2022/12/31 08:27:42;;;;;;;3.40;3.05;;;11.20;99.90;;;;;;5074132;28;20556;-66
2022/12/31 08:30:13;;;;;;;3.92;3.00;;;11.10;99.90;;;;;;5073993;28;20116;-66
2022/12/31 08:32:47;;;;;;;4.47;3.30;;;11.20;99.90;;;;;;5074100;28;20045;-66
2022/12/31 08:35:46;;;;;;;4.68;3.03;;;11.20;99.90;;;;;;5073822;28;20040;-66
2022/12/31 08:38:33;;;;;;;4.63;3.15;;;11.20;99.90;;;;;;5055974;28;20043;-66
2022/12/31 08:41:15;;;;;;;3.60;3.30;;;11.20;99.90;;;;;;5073705;28;20037;-66
2022/12/31 08:44:06;;;;;;;3.83;3.38;;;11.30;99.90;;;;;;5073649;28;20075;-66
2022/12/31 08:46:32;;;;;;;4.70;3.22;;;11.40;99.90;;;;;;5074932;28;20075;-66
2022/12/31 08:48:57;;;;;;;4.22;3.80;;;11.40;99.90;;;;;;5073335;28;20075;-66
2022/12/31 08:51:25;;;;;;;4.15;3.75;;;11.40;99.90;;;;;;5073504;28;20111;-68
2022/12/31 08:53:52;;;;;;;5.30;3.85;;;11.50;99.90;;;;;;5073927;28;20055;-68
2022/12/31 08:56:29;;;;;;;5.43;3.67;;;11.50;99.90;;;;;;5073777;28;20475;-68
2022/12/31 08:59:14;;;;;;;4.43;4.03;;;11.50;99.90;;;;;;5073382;28;20045;-68
2022/12/31 09:02:09;;;;;;;3.22;2.92;;;11.70;99.90;;;;;;5073640;28;20048;-68
2022/12/31 09:05:06;;;;;;;3.22;2.70;;;11.80;99.90;;;;;;5073273;28;20044;-67
2022/12/31 09:07:39;;;;;;;4.32;2.65;;;11.90;99.90;;;;;;5073093;28;20501;-68
2022/12/31 09:10:29;;;;;;;3.35;2.58;;;12.00;99.90;;;;;;5073402;28;20130;-67
2022/12/31 09:12:54;;;;;;;2.80;2.05;;;12.00;99.90;;;;;;5073030;28;20120;-68
2022/12/31 09:15:25;;;;;;;4.13;2.17;;;12.10;99.90;;;;;;5073218;28;20123;-68
2022/12/31 09:17:51;;;;;;;3.67;1.92;;;12.20;99.90;;;;;;5073046;28;20642;-68
2022/12/31 09:20:27;;;;;;;2.38;1.50;;;12.20;99.90;;;;;;5073127;28;20111;-68
2022/12/31 09:22:54;;;;;;;2.70;1.35;;;12.20;99.90;;;;;;5073097;28;20072;-68
2022/12/31 09:25:22;;;;;;;2.50;1.23;;;12.30;99.90;;;;;;5073347;28;20041;-68
2022/12/31 09:28:06;;;;;;;3.70;0.90;;;12.40;99.90;;;;;;5074124;28;20085;-68
2022/12/31 09:31:01;;;;;;;4.93;1.20;;;12.40;99.90;;;;;;5072940;28;20048;-68
2022/12/31 09:33:57;;;;;;;2.67;1.10;;;12.40;99.90;;;;;;5073125;28;20123;-68
2022/12/31 09:36:35;;;;;;;2.67;0.90;;;12.50;99.90;;;;;;5071945;28;20424;-68
2022/12/31 09:39:19;;;;;;;2.90;0.88;;;12.50;99.90;;;;;;5074758;28;20131;-68
2022/12/31 09:42:08;;;;;;;2.35;0.70;;;12.50;99.90;;;;;;5072905;28;20033;-68
2022/12/31 09:45:04;;;;;;;3.50;0.93;;;12.50;99.90;;;;;;5073034;28;20041;-69
2022/12/31 09:48:34;;;;;;;2.95;0.73;;;12.50;99.90;;;;;;5072356;28;20044;-68
2022/12/31 09:51:20;;;;;;;0.90;0.50;;;12.60;99.90;;;;;;4978945;28;20054;-68
2022/12/31 09:54:12;;;;;;;2.22;0.30;;;12.60;99.90;;;;;;4976315;28;20089;-70
2022/12/31 09:57:03;;;;;;;4.63;0.50;;;12.70;99.90;;;;;;4976497;28;20054;-68
2022/12/31 09:59:34;;;;;;;0.95;0.40;;;12.80;99.90;;;;;;4959981;28;20142;-69
2022/12/31 10:02:28;;;;;;;1.25;0.20;;;12.90;99.90;;;;;;4976359;28;20054;-69
2022/12/31 10:05:20;;;;;;;1.67;0.40;;;12.90;99.90;;;;;;4959932;28;20042;-69
2022/12/31 10:08:00;;;;;;;2.50;0.30;;;13.00;99.90;;;;;;4992722;28;20053;-69
2022/12/31 10:10:29;;;;;;;4.35;0.40;;;13.00;99.90;;;;;;4975933;28;20096;-69
2022/12/31 10:13:04;;;;;;;2.28;0.68;;;13.10;99.90;;;;;;4976035;28;20042;-69
2022/12/31 10:15:53;;;;;;;1.95;0.70;;;13.10;99.90;;;;;;4976044;28;20065;-69
2022/12/31 10:18:51;;;;;;;1.88;0.50;;;13.10;99.90;;;;;;4975831;28;20117;-68
2022/12/31 10:21:29;;;;;;;1.48;0.40;;;13.10;99.90;;;;;;5002529;28;20147;-71
2022/12/31 10:24:06;;;;;;;3.55;0.70;;;13.10;99.90;;;;;;5072032;28;20044;-68
2022/12/31 10:26:58;;;;;;;4.63;0.50;;;13.20;99.90;;;;;;5072165;28;20036;-68
2022/12/31 10:29:42;;;;;;;2.83;0.60;;;13.20;99.90;;;;;;5071857;28;20386;-68
2022/12/31 10:32:24;;;;;;;4.15;0.73;;;13.20;99.90;;;;;;5071883;28;20045;-71
2022/12/31 10:35:25;;;;;;;2.15;0.73;;;13.30;99.90;;;;;;5071809;28;20036;-71
2022/12/31 10:38:09;;;;;;;3.17;0.95;;;13.30;99.90;;;;;;5071641;28;20036;-68
2022/12/31 10:40:37;;;;;;;4.93;0.90;;;13.30;99.90;;;;;;5071786;28;20036;-68
2022/12/31 10:43:19;;;;;;;6.75;1.00;;;13.40;99.90;;;;;;5071711;28;20117;-68
2022/12/31 10:46:25;;;;;;;5.05;0.73;;;13.40;99.90;;;;;;5073003;28;20089;-68
2022/12/31 10:49:20;;;;;;;4.93;0.70;;;13.50;99.90;;;;;;5071887;28;20077;-68
2022/12/31 10:52:19;;;;;;;3.03;0.70;;;13.50;99.90;;;;;;5071919;28;20109;-68
2022/12/31 10:55:06;;;;;;;4.22;0.80;;;13.50;99.90;;;;;;5056179;28;20059;-68
2022/12/31 10:57:54;;;;;;;6.25;0.80;;;13.40;99.90;;;;;;5071708;28;20083;-69
2022/12/31 11:00:21;;;;;;;4.00;0.82;;;13.40;99.90;;;;;;5053506;28;20080;-69
2022/12/31 11:03:23;;;;;;;5.75;1.08;;;13.40;99.90;;;;;;5077075;28;20051;-69
2022/12/31 11:06:10;;;;;;;6.05;1.15;;;13.50;99.90;;;;;;5075691;28;20051;-69
2022/12/31 11:09:02;;;;;;;4.88;1.00;;;13.40;99.90;;;;;;5075587;28;20178;-69
2022/12/31 11:11:57;;;;;;;4.35;1.10;;;13.40;99.90;;;;;;5075386;28;20049;-69
2022/12/31 11:14:42;;;;;;;5.45;0.98;;;13.40;99.90;;;;;;5075348;28;20447;-69
2022/12/31 11:17:39;;;;;;;5.75;1.10;;;13.30;99.90;;;;;;5075266;28;20504;-69
2022/12/31 11:20:22;;;;;;;8.35;1.08;;;13.30;99.90;;;;;;5075528;28;19920;-68
2022/12/31 11:22:59;;;;;;;5.13;0.90;;;13.20;99.90;;;;;;5075167;28;20044;-69
2022/12/31 11:25:36;;;;;;;4.70;0.68;;;13.20;99.90;;;;;;5075398;28;20086;-69
2022/12/31 11:28:34;;;;;;;3.10;0.70;;;13.20;99.90;;;;;;5074984;28;20044;-69
2022/12/31 11:31:17;;;;;;;3.92;0.63;;;13.20;99.90;;;;;;5071084;28;20127;-69
2022/12/31 11:34:14;;;;;;;2.08;0.70;;;13.20;99.90;;;;;;5075008;28;20041;-68
2022/12/31 11:37:09;;;;;;;2.22;0.50;;;13.10;99.90;;;;;;5075057;28;20040;-68
2022/12/31 11:39:41;;;;;;;3.97;0.88;;;13.10;99.90;;;;;;5074871;28;20048;-68
2022/12/31 11:42:31;;;;;;;3.25;0.70;;;13.00;99.90;;;;;;5074754;28;20048;-69
2022/12/31 11:45:12;;;;;;;3.80;0.70;;;13.10;99.90;;;;;;5058049;28;20047;-69
2022/12/31 11:47:56;;;;;;;4.10;1.10;;;13.10;99.90;;;;;;5074845;28;20048;-68
2022/12/31 11:50:43;;;;;;;4.82;1.20;;;13.10;99.90;;;;;;5074674;28;20045;-68
2022/12/31 11:53:26;;;;;;;3.88;1.42;;;13.10;99.90;;;;;;5074867;28;20097;-68
2022/12/31 11:56:07;;;;;;;5.38;1.95;;;13.10;99.90;;;;;;5074557;28;20484;-68
2022/12/31 11:58:33;;;;;;;4.32;1.73;;;13.10;99.90;;;;;;5074449;28;20417;-69
2022/12/31 12:01:08;;;;;;;2.15;1.27;;;13.10;99.90;;;;;;5074461;28;20033;-69
2022/12/31 12:03:38;;;;;;;4.25;1.40;;;13.10;99.90;;;;;;5074683;28;20067;-71
2022/12/31 12:06:04;;;;;;;5.35;1.50;;;13.30;99.90;;;;;;5075110;28;20041;-72
2022/12/31 12:08:31;;;;;;;5.70;1.75;;;13.30;99.90;;;;;;5057882;28;20041;-71
2022/12/31 12:11:05;;;;;;;5.97;1.77;;;13.30;99.90;;;;;;5074089;28;20044;-71
2022/12/31 12:13:30;;;;;;;5.38;1.55;;;13.40;99.90;;;;;;5074274;28;20048;-71
2022/12/31 12:15:58;;;;;;;5.68;1.42;;;13.30;99.90;;;;;;5074118;28;20048;-71
2022/12/31 12:18:27;;;;;;;3.28;1.30;;;13.30;99.90;;;;;;5074223;28;20072;-71
2022/12/31 12:21:10;;;;;;;6.63;1.40;;;13.30;99.90;;;;;;5057385;28;20079;-70
2022/12/31 12:23:37;;;;;;;4.45;1.30;;;13.40;99.90;;;;;;5075002;28;20054;-71
2022/12/31 12:26:04;;;;;;;4.65;1.27;;;13.40;99.90;;;;;;5074167;28;20036;-71
2022/12/31 12:28:42;;;;;;;5.30;1.42;;;13.50;99.90;;;;;;5073968;28;20040;-70
2022/12/31 12:31:21;;;;;;;3.85;0.95;;;13.60;99.90;;;;;;5074187;28;20401;-70
2022/12/31 12:33:49;;;;;;;5.25;1.13;;;13.70;99.90;;;;;;5073880;28;20119;-70
2022/12/31 12:36:16;;;;;;;4.40;1.10;;;13.80;99.90;;;;;;5073694;28;20525;-70
2022/12/31 12:38:42;;;;;;;7.20;1.13;;;13.80;99.90;;;;;;5073675;28;20558;-70
2022/12/31 12:41:25;;;;;;;5.10;0.82;;;13.80;99.90;;;;;;5073970;28;20041;-70
2022/12/31 12:44:01;;;;;;;5.22;1.00;;;13.90;99.90;;;;;;5073687;28;20041;-70
2022/12/31 12:46:34;;;;;;;4.25;1.00;;;13.90;99.90;;;;;;5073561;28;20041;-71
2022/12/31 12:49:02;;;;;;;5.10;1.20;;;13.90;99.90;;;;;;5073764;28;20036;-71
2022/12/31 12:51:35;;;;;;;5.88;1.40;;;13.90;99.90;;;;;;5073737;28;20123;-70
2022/12/31 12:54:19;;;;;;;4.63;0.90;;;13.90;99.90;;;;;;5056813;28;20051;-70
2022/12/31 12:56:55;;;;;;;2.65;0.93;;;13.90;99.90;;;;;;5073349;28;20072;-70
2022/12/31 12:59:48;;;;;;;4.80;1.10;;;13.90;99.90;;;;;;5073693;28;20466;-70
2022/12/31 13:02:42;;;;;;;4.47;1.02;;;13.90;99.90;;;;;;5073443;28;20040;-70
2022/12/31 13:05:20;;;;;;;4.60;1.00;;;13.90;99.90;;;;;;5073578;28;20066;-70
2022/12/31 13:07:58;;;;;;;5.85;1.02;;;13.90;99.90;;;;;;5073541;28;20078;-70
2022/12/31 13:10:48;;;;;;;5.97;1.02;;;13.80;99.90;;;;;;5073218;28;20051;-70
2022/12/31 13:13:31;;;;;;;6.57;1.20;;;13.90;99.90;;;;;;5073440;28;20075;-70
2022/12/31 13:16:12;;;;;;;9.35;1.25;;;13.80;99.90;;;;;;5073080;28;20052;-70
2022/12/31 13:19:11;;;;;;;4.70;1.27;;;13.70;99.90;;;;;;5072888;28;20556;-70
2022/12/31 13:21:51;;;;;;;5.65;0.98;;;13.70;99.90;;;;;;5072888;28;20493;-70
2022/12/31 13:24:54;;;;;;;12.05;1.60;;;13.70;99.90;;;;;;5072245;28;20041;-70
2022/12/31 13:27:39;;;;;;;7.13;1.40;;;13.60;99.90;;;;;;5073027;28;20041;-70
2022/12/31 13:30:29;;;;;;;7.65;1.48;;;13.50;99.90;;;;;;5072793;28;20043;-70